Time;durP1;ratioP1;P1;durP2;ratioP2;P2;SDS_P1;SDS_P2;PMS_P1;PMS_P2;Temp;Humidity;BMP_temperature;BMP_pressure;BME280_temperature;BME280_humidity;BME280_pressure;Samples;Min_cycle;Max_cycle;Signal;HPM_P1;HPM_P2
2020/12/07 00:00:42;;;;;;;32.95;17.52;;;;;;;4.41;97.14;98536.72;5048272;28;20137;-76
2020/12/07 00:03:09;;;;;;;26.55;15.13;;;;;;;4.42;96.84;98541.03;5046600;28;20492;-77
2020/12/07 00:05:36;;;;;;;20.45;12.23;;;;;;;4.42;96.19;98543.66;5047985;28;20047;-77
2020/12/07 00:08:03;;;;;;;22.02;11.77;;;;;;;4.41;95.98;98541.97;5045614;28;20044;-79
2020/12/07 00:10:30;;;;;;;20.15;12.20;;;;;;;4.42;95.62;98538.41;5050032;28;21455;-77
2020/12/07 00:12:57;;;;;;;23.00;13.30;;;;;;;4.40;95.76;98525.41;5047904;28;20048;-79
2020/12/07 00:15:23;;;;;;;19.27;11.45;;;;;;;4.40;95.94;98517.56;5046800;28;20492;-78
2020/12/07 00:17:52;;;;;;;19.35;11.25;;;;;;;4.41;96.06;98510.50;5047904;28;20051;-75
2020/12/07 00:20:18;;;;;;;19.73;11.93;;;;;;;4.45;95.47;98506.81;5051892;28;20045;-76
2020/12/07 00:22:45;;;;;;;15.73;10.30;;;;;;;4.45;94.98;98496.34;5050429;28;20425;-75
2020/12/07 00:25:11;;;;;;;15.68;10.23;;;;;;;4.41;95.01;98500.88;5047206;28;20877;-77
2020/12/07 00:27:38;;;;;;;15.85;9.65;;;;;;;4.40;94.79;98512.31;5049467;28;20412;-76
2020/12/07 00:30:06;;;;;;;16.20;9.18;;;;;;;4.36;95.15;98505.53;5047392;28;20153;-76
2020/12/07 00:32:33;;;;;;;15.85;9.60;;;;;;;4.36;95.25;98509.94;5043499;28;20053;-75
2020/12/07 00:35:01;;;;;;;14.13;8.30;;;;;;;4.35;95.05;98519.56;5043498;28;20075;-77
2020/12/07 00:37:27;;;;;;;12.35;8.05;;;;;;;4.29;94.92;98503.28;5042635;28;20056;-78
2020/12/07 00:39:53;;;;;;;11.07;7.32;;;;;;;4.28;94.46;98505.06;5043760;28;20132;-76
2020/12/07 00:42:20;;;;;;;11.88;7.30;;;;;;;4.29;94.15;98505.91;5045277;28;20139;-77
2020/12/07 00:44:46;;;;;;;12.07;7.78;;;;;;;4.26;94.30;98503.44;5047820;28;20690;-77
2020/12/07 00:47:13;;;;;;;12.27;6.85;;;;;;;4.23;94.43;98505.31;5043973;28;20055;-77
2020/12/07 00:49:39;;;;;;;9.90;7.00;;;;;;;4.22;94.43;98502.78;5046158;28;20052;-77
2020/12/07 00:52:07;;;;;;;11.35;6.85;;;;;;;4.21;94.31;98488.84;5044377;28;20052;-78
2020/12/07 00:54:35;;;;;;;10.73;7.72;;;;;;;4.19;94.79;98492.44;5046211;28;20075;-77
2020/12/07 00:57:03;;;;;;;11.68;8.05;;;;;;;4.19;94.89;98492.44;5045835;28;20049;-78
2020/12/07 00:59:32;;;;;;;11.60;8.20;;;;;;;4.20;94.93;98481.91;5044007;28;20063;-77
2020/12/07 01:01:59;;;;;;;13.85;8.80;;;;;;;4.22;94.87;98484.44;5041726;28;20053;-77
2020/12/07 01:04:26;;;;;;;15.63;9.15;;;;;;;4.21;94.70;98496.69;5044745;28;20064;-76
2020/12/07 01:06:52;;;;;;;13.15;8.52;;;;;;;4.17;95.19;98504.78;5045777;28;20060;-76
2020/12/07 01:09:20;;;;;;;14.25;9.48;;;;;;;4.14;95.14;98504.94;5042357;28;20049;-78
2020/12/07 01:11:54;;;;;;;17.45;10.80;;;;;;;4.10;95.85;98487.66;5051766;28;20057;-77
2020/12/07 01:14:22;;;;;;;17.35;10.77;;;;;;;4.13;95.92;98487.50;5046522;28;20052;-76
2020/12/07 01:16:49;;;;;;;21.40;13.23;;;;;;;4.14;96.57;98483.97;5050483;28;20495;-77
2020/12/07 01:19:16;;;;;;;19.98;12.60;;;;;;;4.14;96.77;98471.72;5046131;28;20424;-75
2020/12/07 01:21:43;;;;;;;20.08;11.82;;;;;;;4.19;96.67;98461.88;5061450;28;20049;-79
2020/12/07 01:24:11;;;;;;;21.25;12.57;;;;;;;4.23;96.46;98458.16;5073135;28;20031;-78
2020/12/07 01:26:38;;;;;;;20.63;12.57;;;;;;;4.29;96.52;98462.22;5072276;28;20053;-77
2020/12/07 01:29:06;;;;;;;19.15;12.07;;;;;;;4.30;96.45;98465.69;5055410;28;20135;-77
2020/12/07 01:31:33;;;;;;;21.38;13.35;;;;;;;4.26;96.28;98462.38;5051232;28;20052;-76
2020/12/07 01:33:59;;;;;;;22.30;12.23;;;;;;;4.29;96.17;98475.31;5047624;28;20041;-78
2020/12/07 01:36:26;;;;;;;20.25;11.77;;;;;;;4.28;95.88;98473.63;5047888;28;20049;-76
2020/12/07 01:38:53;;;;;;;17.05;11.20;;;;;;;4.31;96.17;98470.00;5044166;28;20052;-75
2020/12/07 01:41:19;;;;;;;19.17;11.45;;;;;;;4.30;96.05;98461.28;5053384;28;20049;-75
2020/12/07 01:43:46;;;;;;;15.57;10.13;;;;;;;4.30;95.75;98450.81;5052836;28;20053;-76
2020/12/07 01:46:20;;;;;;;14.05;9.07;;;;;;;4.32;94.66;98459.44;5047294;28;20045;-77
2020/12/07 01:48:47;;;;;;;15.48;9.52;;;;;;;4.27;94.38;98453.59;5049481;28;20044;-77
2020/12/07 01:51:15;;;;;;;15.70;9.95;;;;;;;4.25;94.95;98459.88;5048904;28;20064;-76
2020/12/07 01:53:43;;;;;;;16.48;9.98;;;;;;;4.21;94.93;98465.25;5049272;28;20049;-78
2020/12/07 01:56:13;;;;;;;15.07;9.60;;;;;;;4.21;95.32;98464.41;5043677;28;20248;-77
2020/12/07 01:58:40;;;;;;;14.35;9.30;;;;;;;4.18;95.30;98456.69;5043794;28;20053;-78
2020/12/07 02:01:07;;;;;;;13.07;9.68;;;;;;;4.19;94.84;98463.63;5043544;28;20057;-76
2020/12/07 02:03:34;;;;;;;14.70;9.18;;;;;;;4.17;94.91;98470.72;5042974;28;20049;-76
2020/12/07 02:06:00;;;;;;;14.68;9.68;;;;;;;4.15;94.86;98481.28;5058959;28;20052;-77
2020/12/07 02:08:26;;;;;;;14.07;9.43;;;;;;;4.17;95.68;98475.97;5066512;28;20057;-76
2020/12/07 02:10:53;;;;;;;12.57;9.00;;;;;;;4.19;95.24;98471.50;5063236;28;20052;-77
2020/12/07 02:13:19;;;;;;;14.27;9.13;;;;;;;4.21;95.12;98469.66;5045655;28;20060;-77
2020/12/07 02:15:46;;;;;;;12.15;8.18;;;;;;;4.20;95.25;98476.66;5040490;28;20096;-78
2020/12/07 02:18:12;;;;;;;11.95;8.15;;;;;;;4.19;94.55;98477.59;5052374;28;20045;-79
2020/12/07 02:20:38;;;;;;;10.43;7.57;;;;;;;4.20;95.00;98483.66;5061496;28;20036;-79
2020/12/07 02:23:05;;;;;;;10.60;7.70;;;;;;;4.21;94.62;98487.97;5069364;28;20076;-80
2020/12/07 02:25:31;;;;;;;9.90;7.03;;;;;;;4.17;93.87;98497.78;5066204;28;20048;-78
2020/12/07 02:27:58;;;;;;;12.18;8.23;;;;;;;4.14;94.28;98504.94;5060591;28;20060;-79
2020/12/07 02:30:25;;;;;;;15.52;10.20;;;;;;;4.09;95.09;98533.97;5041250;28;20053;-79
2020/12/07 02:32:52;;;;;;;19.73;11.63;;;;;;;4.08;95.35;98536.69;5048765;28;20041;-78
2020/12/07 02:35:19;;;;;;;23.15;12.20;;;;;;;4.07;95.57;98540.22;5038564;28;20469;-77
2020/12/07 02:37:47;;;;;;;20.80;13.35;;;;;;;4.07;95.93;98540.22;5043603;28;20063;-77
2020/12/07 02:40:15;;;;;;;20.10;12.15;;;;;;;4.12;95.75;98539.06;5041404;28;20060;-79
2020/12/07 02:42:42;;;;;;;20.23;11.95;;;;;;;4.16;95.73;98542.38;5051573;28;20048;-78
2020/12/07 02:45:11;;;;;;;19.23;12.13;;;;;;;4.22;95.81;98547.31;5045984;28;20049;-76
2020/12/07 02:47:38;;;;;;;17.10;11.00;;;;;;;4.24;95.21;98527.13;5046526;28;20037;-78
2020/12/07 02:50:06;;;;;;;15.13;10.02;;;;;;;4.32;95.01;98519.72;5047500;28;20499;-79
2020/12/07 02:52:33;;;;;;;16.38;10.05;;;;;;;4.29;94.55;98522.47;5050961;28;20037;-77
2020/12/07 02:55:03;;;;;;;14.45;10.20;;;;;;;4.33;94.82;98523.19;5042582;28;20048;-78
2020/12/07 02:57:29;;;;;;;15.57;9.50;;;;;;;4.29;94.52;98525.09;5042272;28;20053;-76
2020/12/07 02:59:56;;;;;;;18.23;10.90;;;;;;;4.30;94.15;98525.94;5048274;28;20049;-79
2020/12/07 03:02:23;;;;;;;19.00;10.75;;;;;;;4.33;94.67;98531.88;5043880;28;20110;-76
2020/12/07 03:04:50;;;;;;;17.88;9.63;;;;;;;4.32;94.48;98539.81;5048779;28;20106;-78
2020/12/07 03:07:16;;;;;;;15.48;9.93;;;;;;;4.32;94.60;98534.59;5045432;28;20091;-77
2020/12/07 03:09:43;;;;;;;14.52;10.15;;;;;;;4.29;94.54;98519.88;5043888;28;20056;-75
2020/12/07 03:12:10;;;;;;;18.15;10.20;;;;;;;4.33;95.02;98516.16;5044600;28;20049;-77
2020/12/07 03:14:36;;;;;;;15.38;9.63;;;;;;;4.34;94.84;98491.66;5040246;28;20078;-79
2020/12/07 03:17:03;;;;;;;14.43;9.70;;;;;;;4.42;94.21;98475.53;5049047;28;20041;-78
2020/12/07 03:19:30;;;;;;;16.42;9.70;;;;;;;4.41;94.07;98479.91;5047954;28;20060;-76
2020/12/07 03:21:57;;;;;;;14.45;9.57;;;;;;;4.39;94.01;98488.81;5047802;28;20041;-76
2020/12/07 03:24:24;;;;;;;15.20;10.02;;;;;;;4.33;94.57;98491.75;5048160;28;20473;-74
2020/12/07 03:26:50;;;;;;;16.23;10.65;;;;;;;4.32;94.20;98484.81;5042325;28;20044;-77
2020/12/07 03:29:17;;;;;;;19.67;11.40;;;;;;;4.35;94.96;98498.59;5056250;28;20111;-78
2020/12/07 03:31:43;;;;;;;18.83;10.95;;;;;;;4.36;94.90;98507.31;5043128;28;20041;-77
2020/12/07 03:34:12;;;;;;;18.00;11.45;;;;;;;4.34;95.48;98510.00;5045652;28;20060;-76
2020/12/07 03:36:40;;;;;;;20.48;12.13;;;;;;;4.35;95.38;98524.81;5038990;28;20412;-77
2020/12/07 03:39:08;;;;;;;23.75;14.10;;;;;;;4.29;95.36;98532.97;5040008;28;20068;-77
2020/12/07 03:41:34;;;;;;;25.58;13.98;;;;;;;4.26;95.84;98535.72;5048058;28;20589;-77
2020/12/07 03:44:01;;;;;;;25.83;14.77;;;;;;;4.27;96.14;98529.56;5042821;28;20048;-76
2020/12/07 03:46:27;;;;;;;25.75;14.27;;;;;;;4.35;95.98;98516.09;5045877;28;20053;-77
2020/12/07 03:48:55;;;;;;;24.83;13.98;;;;;;;4.38;95.84;98506.31;5042538;28;20052;-78
2020/12/07 03:51:21;;;;;;;23.63;13.57;;;;;;;4.41;95.45;98497.41;5046245;28;20049;-78
2020/12/07 03:53:47;;;;;;;25.42;14.23;;;;;;;4.43;95.82;98499.03;5045661;28;20049;-75
2020/12/07 03:56:14;;;;;;;23.90;14.57;;;;;;;4.42;95.49;98494.72;5041811;28;20048;-78
2020/12/07 03:58:40;;;;;;;29.33;15.15;;;;;;;4.37;95.79;98499.38;5038747;28;20159;-78
2020/12/07 04:01:09;;;;;;;32.00;15.93;;;;;;;4.34;96.01;98514.41;5048273;28;20515;-76
2020/12/07 04:03:37;;;;;;;31.95;15.23;;;;;;;4.30;96.23;98511.06;5044729;28;20052;-77
2020/12/07 04:09:03;;;;;;;33.72;16.70;;;;;;;4.28;96.68;98523.41;5016990;28;20072;-77
2020/12/07 04:11:29;;;;;;;29.42;15.60;;;;;;;4.27;97.03;98524.31;5041455;28;20037;-77
2020/12/07 04:13:55;;;;;;;32.72;16.55;;;;;;;4.24;97.10;98529.75;5046906;28;20484;-76
2020/12/07 04:16:26;;;;;;;29.55;15.93;;;;;;;4.23;97.38;98533.28;5043931;28;20053;-75
2020/12/07 04:18:53;;;;;;;32.47;16.15;;;;;;;4.22;97.36;98544.69;5050864;28;20136;-78
2020/12/07 04:21:20;;;;;;;33.60;16.05;;;;;;;4.23;97.62;98543.78;5045772;28;20416;-78
2020/12/07 04:23:46;;;;;;;30.73;15.30;;;;;;;4.22;97.70;98545.53;5042379;28;20053;-77
2020/12/07 04:26:13;;;;;;;28.73;15.18;;;;;;;4.28;97.80;98544.38;5040678;28;20094;-77
2020/12/07 04:28:39;;;;;;;25.85;14.75;;;;;;;4.35;97.81;98552.78;5043767;28;20488;-78
2020/12/07 04:31:05;;;;;;;28.25;14.98;;;;;;;4.39;96.66;98551.69;5047260;28;20049;-78
2020/12/07 04:33:32;;;;;;;28.27;15.10;;;;;;;4.45;96.70;98556.59;5040077;28;20053;-77
2020/12/07 04:35:58;;;;;;;28.58;14.63;;;;;;;4.40;96.11;98559.50;5049183;28;20057;-76
2020/12/07 04:38:24;;;;;;;28.02;14.90;;;;;;;4.40;96.12;98562.09;5046428;28;20041;-76
2020/12/07 04:40:52;;;;;;;29.80;16.30;;;;;;;4.40;96.38;98567.34;5041489;28;20073;-80
2020/12/07 04:43:18;;;;;;;33.63;16.33;;;;;;;4.43;96.64;98571.56;5044031;28;20065;-78
2020/12/07 04:45:45;;;;;;;28.80;16.15;;;;;;;4.42;96.41;98570.72;5044647;28;20041;-78
2020/12/07 04:48:12;;;;;;;27.10;15.55;;;;;;;4.48;96.47;98577.44;5044385;28;20064;-76
2020/12/07 04:50:39;;;;;;;31.95;17.20;;;;;;;4.50;96.49;98576.44;5056790;28;20145;-79
2020/12/07 04:53:05;;;;;;;34.03;17.48;;;;;;;4.51;96.58;98557.16;5053205;28;20041;-77
2020/12/07 04:55:32;;;;;;;34.05;17.65;;;;;;;4.54;95.97;98559.63;5053696;28;20117;-77
2020/12/07 04:57:59;;;;;;;33.45;17.45;;;;;;;4.49;95.89;98551.13;5043253;28;20479;-77
2020/12/07 05:00:26;;;;;;;35.72;18.52;;;;;;;4.46;95.85;98559.16;5043260;28;20526;-77
2020/12/07 05:02:55;;;;;;;35.72;17.70;;;;;;;4.42;96.39;98573.34;5046906;28;20048;-76
2020/12/07 05:05:22;;;;;;;41.17;17.90;;;;;;;4.37;96.44;98580.59;5041800;28;20059;-78
2020/12/07 05:07:51;;;;;;;35.42;18.50;;;;;;;4.33;96.41;98592.16;5064924;28;20048;-77
2020/12/07 05:10:40;;;;;;;32.00;17.90;;;;;;;4.31;96.45;98596.63;5037313;28;20069;-75
2020/12/07 05:15:52;;;;;;;33.80;17.83;;;;;;;4.32;96.89;98593.09;5039620;28;20076;-76
2020/12/07 05:18:19;;;;;;;32.67;17.60;;;;;;;4.38;96.93;98595.41;5037671;28;20053;-77
2020/12/07 05:20:45;;;;;;;34.33;18.40;;;;;;;4.45;96.90;98594.16;5042718;28;20041;-77
2020/12/07 05:23:15;;;;;;;32.53;17.25;;;;;;;4.37;96.56;98596.31;5057632;28;20049;-77
2020/12/07 05:25:47;;;;;;;32.97;17.27;;;;;;;4.43;96.39;98590.75;5064971;28;20025;-77
2020/12/07 05:28:21;;;;;;;33.38;16.70;;;;;;;4.41;96.31;98581.28;5070216;28;20053;-76
2020/12/07 05:30:51;;;;;;;33.92;17.15;;;;;;;4.38;96.40;98582.31;5046916;28;20090;-76
2020/12/07 05:33:18;;;;;;;34.88;18.35;;;;;;;4.35;96.17;98590.31;5042388;28;20060;-76
2020/12/07 05:35:53;;;;;;;31.85;17.10;;;;;;;4.34;96.59;98600.88;5043234;28;20053;-76
2020/12/07 05:38:20;;;;;;;37.15;18.35;;;;;;;4.30;96.79;98608.03;5039985;28;20512;-76
2020/12/07 05:40:46;;;;;;;35.70;17.75;;;;;;;4.31;96.73;98612.34;5045139;28;20063;-74
2020/12/07 05:43:13;;;;;;;33.22;17.05;;;;;;;4.31;96.96;98616.72;5042657;28;20049;-75
2020/12/07 05:45:41;;;;;;;31.13;16.73;;;;;;;4.29;96.59;98606.31;5039261;28;20055;-76
2020/12/07 05:48:10;;;;;;;34.10;17.00;;;;;;;4.31;96.34;98616.72;5038232;28;20052;-77
2020/12/07 05:50:43;;;;;;;33.72;17.33;;;;;;;4.37;96.71;98613.81;5044079;28;20121;-77
2020/12/07 05:53:09;;;;;;;34.55;17.70;;;;;;;4.34;95.95;98613.97;5045859;28;20098;-77
2020/12/07 05:55:36;;;;;;;33.30;17.08;;;;;;;4.36;96.47;98619.97;5040385;28;20574;-76
2020/12/07 05:58:08;;;;;;;33.28;17.65;;;;;;;4.38;96.71;98624.22;5043160;28;20151;-76
2020/12/07 06:00:35;;;;;;;32.03;17.52;;;;;;;4.37;96.14;98622.53;5040128;28;20489;-77
2020/12/07 06:03:04;;;;;;;36.70;18.48;;;;;;;4.29;95.96;98611.56;5038421;28;20041;-78
2020/12/07 06:05:31;;;;;;;34.72;18.15;;;;;;;4.31;96.73;98622.81;5035411;28;20140;-77
2020/12/07 06:08:24;;;;;;;36.10;19.67;;;;;;;4.40;97.59;98622.38;5030122;28;20087;-77
2020/12/07 06:11:03;;;;;;;36.10;18.10;;;;;;;4.45;97.41;98622.97;5039207;28;20309;-77
2020/12/07 06:13:30;;;;;;;37.38;18.60;;;;;;;4.48;97.75;98625.44;5042262;28;20045;-77
2020/12/07 06:15:57;;;;;;;37.53;18.95;;;;;;;4.48;97.26;98635.09;5040900;28;20116;-76
2020/12/07 06:18:29;;;;;;;35.10;18.35;;;;;;;4.46;96.96;98635.16;5040911;28;20150;-77
2020/12/07 06:21:10;;;;;;;35.72;19.25;;;;;;;4.40;96.50;98642.50;5039896;28;20072;-78
2020/12/07 06:23:38;;;;;;;35.60;18.75;;;;;;;4.37;96.45;98648.75;5040214;28;20052;-77
2020/12/07 06:26:06;;;;;;;33.60;18.95;;;;;;;4.36;96.36;98652.28;5045978;28;20041;-76
2020/12/07 06:28:36;;;;;;;36.58;19.17;;;;;;;4.34;95.89;98661.13;5038163;28;20055;-76
2020/12/07 06:31:13;;;;;;;35.50;18.15;;;;;;;4.37;96.01;98648.75;5038032;28;20049;-78
2020/12/07 06:33:50;;;;;;;32.75;17.83;;;;;;;4.35;95.98;98660.22;5046580;28;20137;-75
2020/12/07 06:36:32;;;;;;;36.85;19.05;;;;;;;4.33;95.75;98662.06;5039902;28;20079;-77
2020/12/07 06:39:07;;;;;;;39.05;20.08;;;;;;;4.32;95.83;98661.22;5038818;28;20388;-76
2020/12/07 06:41:44;;;;;;;39.10;20.40;;;;;;;4.35;96.03;98668.06;5043425;28;20067;-77
2020/12/07 06:44:12;;;;;;;37.00;20.05;;;;;;;4.37;95.87;98672.31;5038623;28;20076;-76
2020/12/07 06:46:49;;;;;;;39.38;21.17;;;;;;;4.39;95.41;98677.50;5044296;28;20056;-77
2020/12/07 06:49:16;;;;;;;40.10;20.20;;;;;;;4.39;95.21;98683.59;5039008;28;20140;-76
2020/12/07 06:51:54;;;;;;;38.50;20.38;;;;;;;4.33;95.08;98683.88;5040148;28;20068;-78
2020/12/07 06:57:26;;;;;;;41.70;22.20;;;;;;;4.31;96.13;98700.59;5035415;28;20460;-77
2020/12/07 07:00:05;;;;;;;46.40;21.85;;;;;;;4.29;96.87;98703.28;5041690;28;23211;-76
2020/12/07 07:02:32;;;;;;;41.47;21.80;;;;;;;4.28;96.31;98706.81;5047451;28;20072;-76
2020/12/07 07:05:00;;;;;;;47.03;23.17;;;;;;;4.27;96.42;98712.97;5040375;28;20041;-77
2020/12/07 07:07:29;;;;;;;45.47;23.30;;;;;;;4.30;96.69;98714.59;5042241;28;20061;-78
2020/12/07 07:09:56;;;;;;;49.13;25.23;;;;;;;4.31;96.97;98708.44;5040135;28;20496;-76
2020/12/07 07:12:22;;;;;;;42.75;21.98;;;;;;;4.37;96.49;98698.53;5056568;28;20128;-79
2020/12/07 07:14:53;;;;;;;44.78;22.27;;;;;;;4.41;95.94;98702.66;5070541;28;20041;-76
2020/12/07 07:17:22;;;;;;;42.45;22.10;;;;;;;4.42;95.50;98698.28;5060473;28;20055;-76
2020/12/07 07:19:48;;;;;;;44.22;22.58;;;;;;;4.42;95.66;98707.00;5054147;28;20045;-75
2020/12/07 07:22:15;;;;;;;45.85;24.23;;;;;;;4.38;95.76;98702.84;5049933;28;20047;-78
2020/12/07 07:24:58;;;;;;;44.95;22.52;;;;;;;4.34;95.93;98711.78;5051803;28;20042;-76
2020/12/07 07:30:15;;;;;;;42.03;21.90;;;;;;;4.46;95.56;98703.31;5070224;28;20045;-79
2020/12/07 07:32:42;;;;;;;37.70;20.83;;;;;;;4.50;94.43;98710.09;5073279;28;20051;-79
2020/12/07 07:35:10;;;;;;;49.15;22.70;;;;;;;4.48;94.85;98718.97;5073340;28;20087;-79
2020/12/07 07:37:39;;;;;;;47.65;23.23;;;;;;;4.50;95.29;98722.34;5065996;28;20528;-78
2020/12/07 07:40:08;;;;;;;44.92;21.58;;;;;;;4.48;95.10;98716.34;5054699;28;20381;-77
2020/12/07 07:42:41;;;;;;;47.27;23.43;;;;;;;4.46;95.45;98726.91;5048329;28;20498;-76
2020/12/07 07:45:08;;;;;;;49.30;24.17;;;;;;;4.41;95.76;98730.66;5048945;28;20487;-78
2020/12/07 07:47:44;;;;;;;50.15;25.00;;;;;;;4.41;95.53;98735.88;5055675;28;20163;-76
2020/12/07 08:17:53;;;;;;;51.40;26.42;;;;;;;4.49;95.16;98766.06;5042400;28;20049;-77
2020/12/07 08:20:23;;;;;;;51.05;25.20;;;;;;;4.51;94.75;98769.47;5049790;28;20695;-77
2020/12/07 08:23:03;;;;;;;51.73;25.93;;;;;;;4.50;94.83;98778.25;5044732;28;20060;-78
2020/12/07 08:25:52;;;;;;;53.53;25.98;;;;;;;4.52;95.03;98786.91;5042479;28;20059;-76
2020/12/07 08:28:30;;;;;;;52.58;25.92;;;;;;;4.56;95.60;98780.56;5039475;28;20060;-78
2020/12/07 08:31:09;;;;;;;51.92;25.35;;;;;;;4.56;95.21;98787.59;5040979;28;20053;-78
2020/12/07 08:33:38;;;;;;;53.80;26.90;;;;;;;4.59;95.43;98793.53;5045336;28;20072;-78
2020/12/07 08:36:06;;;;;;;53.30;25.77;;;;;;;4.63;96.39;98796.00;5037633;28;20042;-77
2020/12/07 08:38:36;;;;;;;50.47;25.38;;;;;;;4.56;95.59;98796.28;5040362;28;20068;-77
2020/12/07 08:41:10;;;;;;;47.40;24.93;;;;;;;4.54;95.16;98803.41;5043645;28;20590;-78
2020/12/07 08:43:42;;;;;;;47.90;23.65;;;;;;;4.57;94.79;98811.09;5040295;28;20145;-78
2020/12/07 08:46:10;;;;;;;48.60;25.17;;;;;;;4.58;95.63;98804.09;5047157;28;20407;-76
2020/12/07 08:48:38;;;;;;;48.53;24.45;;;;;;;4.59;95.53;98811.03;5044820;28;20055;-76
2020/12/07 08:51:05;;;;;;;44.83;23.42;;;;;;;4.62;94.90;98802.16;5046003;28;20055;-76
2020/12/07 08:53:32;;;;;;;43.20;22.92;;;;;;;4.58;95.09;98804.09;5047484;28;20060;-76
2020/12/07 08:55:59;;;;;;;42.92;22.70;;;;;;;4.65;94.66;98807.28;5045172;28;20049;-76
2020/12/07 08:58:25;;;;;;;38.67;20.67;;;;;;;4.69;94.06;98803.59;5047045;28;20046;-79
2020/12/07 09:00:52;;;;;;;40.17;20.40;;;;;;;4.77;93.48;98811.91;5042220;28;20056;-80
2020/12/07 09:03:18;;;;;;;39.72;21.42;;;;;;;4.76;93.32;98816.31;5044145;28;20044;-77
2020/12/07 09:05:45;;;;;;;39.47;21.45;;;;;;;4.77;93.68;98814.53;5045971;28;20144;-76
2020/12/07 09:08:11;;;;;;;42.10;21.65;;;;;;;4.83;92.98;98822.97;5042249;28;20836;-77
2020/12/07 09:10:38;;;;;;;40.55;20.73;;;;;;;4.78;93.26;98816.25;5048336;28;20056;-78
2020/12/07 09:13:04;;;;;;;41.17;21.77;;;;;;;4.80;93.90;98824.88;5045191;28;20044;-77
2020/12/07 09:15:32;;;;;;;38.75;21.67;;;;;;;4.78;93.83;98834.59;5044892;28;22155;-77
2020/12/07 09:17:59;;;;;;;42.00;22.20;;;;;;;4.78;94.69;98831.97;5037310;28;20083;-77
2020/12/07 09:20:25;;;;;;;40.15;20.60;;;;;;;4.75;94.42;98839.97;5042723;28;20386;-77
2020/12/07 09:22:52;;;;;;;43.25;21.33;;;;;;;4.81;93.92;98844.94;5044856;28;20159;-76
2020/12/07 09:25:19;;;;;;;43.35;22.00;;;;;;;4.83;94.42;98851.81;5041679;28;20045;-76
2020/12/07 09:27:45;;;;;;;40.35;21.75;;;;;;;4.84;94.90;98852.66;5046662;28;20532;-77
2020/12/07 09:30:12;;;;;;;38.28;21.15;;;;;;;4.84;94.85;98863.16;5048824;28;20102;-76
2020/12/07 09:32:38;;;;;;;39.05;21.13;;;;;;;4.83;94.25;98864.09;5048886;28;20047;-76
2020/12/07 09:35:09;;;;;;;38.05;20.55;;;;;;;4.85;93.93;98862.25;5047135;28;20052;-78
2020/12/07 09:37:36;;;;;;;38.03;19.50;;;;;;;4.90;93.96;98873.34;5047516;28;20075;-77
2020/12/07 09:40:05;;;;;;;37.05;19.55;;;;;;;4.86;94.00;98877.06;5045345;28;20055;-77
2020/12/07 09:42:32;;;;;;;36.17;19.00;;;;;;;4.79;93.77;98875.63;5042885;28;20049;-76
2020/12/07 09:44:59;;;;;;;35.17;19.02;;;;;;;4.74;93.67;98875.84;5034503;28;20076;-78
2020/12/07 09:47:26;;;;;;;34.45;19.75;;;;;;;4.74;93.94;98880.22;5042621;28;20140;-79
2020/12/07 09:49:55;;;;;;;33.72;18.05;;;;;;;4.79;94.02;98888.75;5045399;28;20135;-80
2020/12/07 09:52:22;;;;;;;33.42;18.17;;;;;;;4.85;94.40;98885.84;5043994;28;20155;-75
2020/12/07 09:54:52;;;;;;;33.53;18.50;;;;;;;4.90;93.36;98883.81;5044666;28;20123;-77
2020/12/07 09:57:20;;;;;;;33.08;18.00;;;;;;;4.96;93.24;98887.94;5043169;28;20126;-77
2020/12/07 09:59:50;;;;;;;31.60;17.42;;;;;;;5.03;93.06;98884.97;5041320;28;20086;-77
2020/12/07 10:02:17;;;;;;;28.48;17.05;;;;;;;5.10;92.19;98881.09;5041560;28;20112;-77
2020/12/07 10:04:46;;;;;;;30.77;17.52;;;;;;;5.10;92.37;98878.47;5039524;28;20040;-78
2020/12/07 10:07:16;;;;;;;27.48;15.77;;;;;;;5.19;91.60;98879.81;5041838;28;20768;-76
2020/12/07 10:09:47;;;;;;;26.10;15.68;;;;;;;5.21;90.99;98877.94;5043758;28;20144;-76
2020/12/07 10:12:15;;;;;;;30.63;17.20;;;;;;;5.21;91.48;98878.78;5039298;28;20037;-75
2020/12/07 10:14:43;;;;;;;26.10;16.33;;;;;;;5.11;91.91;98882.81;5049145;28;20519;-76
2020/12/07 10:17:11;;;;;;;30.27;17.70;;;;;;;5.12;91.99;98883.66;5041568;28;20041;-77
2020/12/07 10:19:39;;;;;;;29.60;17.50;;;;;;;5.09;92.80;98878.53;5045211;28;20049;-79
2020/12/07 10:22:07;;;;;;;32.85;18.13;;;;;;;5.09;92.42;98871.53;5047828;28;20044;-76
2020/12/07 10:24:35;;;;;;;29.42;16.40;;;;;;;5.18;92.48;98884.22;5050850;28;20049;-75
2020/12/07 10:27:06;;;;;;;34.10;16.95;;;;;;;5.23;92.62;98887.44;5051145;28;20076;-78
2020/12/07 10:29:33;;;;;;;32.42;19.02;;;;;;;5.24;92.74;98889.13;5046655;28;20054;-78
2020/12/07 10:32:03;;;;;;;25.58;15.82;;;;;;;5.31;92.58;98894.09;5048131;28;20497;-78
2020/12/07 10:34:31;;;;;;;29.67;17.10;;;;;;;5.36;92.27;98885.06;5049001;28;20099;-78
2020/12/07 10:36:59;;;;;;;28.98;17.05;;;;;;;5.43;91.70;98893.50;5045583;28;20056;-77
2020/12/07 10:39:28;;;;;;;32.05;18.05;;;;;;;5.43;91.63;98893.50;5047403;28;20049;-79
2020/12/07 10:41:55;;;;;;;32.22;17.83;;;;;;;5.42;92.10;98891.78;5046809;28;20048;-78
2020/12/07 10:44:25;;;;;;;29.65;17.40;;;;;;;5.44;92.13;98884.69;5044015;28;20068;-76
2020/12/07 10:46:53;;;;;;;31.00;18.65;;;;;;;5.47;92.38;98889.78;5039077;28;20134;-77
2020/12/07 10:49:20;;;;;;;31.88;17.35;;;;;;;5.48;91.92;98902.00;5049661;28;20083;-76
2020/12/07 10:51:48;;;;;;;31.98;18.20;;;;;;;5.50;91.43;98901.00;5043117;28;20407;-80
2020/12/07 10:54:14;;;;;;;24.50;15.32;;;;;;;5.54;90.55;98902.50;5046872;28;20139;-78
2020/12/07 10:56:45;;;;;;;25.50;15.18;;;;;;;5.46;90.72;98901.22;5038334;28;20677;-77
2020/12/07 10:59:12;;;;;;;27.08;16.15;;;;;;;5.44;91.34;98898.66;5045915;28;20048;-77
2020/12/07 11:01:39;;;;;;;29.73;16.35;;;;;;;5.46;91.36;98911.72;5046833;28;20061;-77
2020/12/07 11:04:05;;;;;;;28.27;15.38;;;;;;;5.52;91.01;98909.63;5043917;28;20041;-77
2020/12/07 11:06:35;;;;;;;26.40;16.63;;;;;;;5.54;89.96;98902.50;5056469;28;20079;-77
2020/12/07 11:09:07;;;;;;;24.95;14.88;;;;;;;5.50;90.24;98906.25;5063662;28;20437;-76
2020/12/07 11:11:33;;;;;;;28.23;16.38;;;;;;;5.49;90.47;98908.94;5045788;28;20053;-77
2020/12/07 11:14:01;;;;;;;29.73;16.38;;;;;;;5.50;91.01;98908.88;5048033;28;20480;-76
2020/12/07 11:16:27;;;;;;;29.15;16.80;;;;;;;5.52;91.20;98912.25;5043599;28;20144;-78
2020/12/07 11:18:54;;;;;;;26.50;15.57;;;;;;;5.63;89.90;98903.84;5047093;28;20600;-77
2020/12/07 11:21:20;;;;;;;29.95;16.92;;;;;;;5.67;89.34;98910.63;5044260;28;20049;-78
2020/12/07 11:23:48;;;;;;;30.33;17.02;;;;;;;5.67;90.39;98907.16;5047699;28;20043;-77
2020/12/07 11:26:16;;;;;;;29.60;16.98;;;;;;;5.65;90.33;98907.25;5049011;28;20132;-77
2020/12/07 11:28:44;;;;;;;29.02;17.48;;;;;;;5.65;90.85;98912.50;5053254;28;20083;-77
2020/12/07 11:31:13;;;;;;;29.25;17.92;;;;;;;5.67;90.92;98918.50;5054270;28;20103;-77
2020/12/07 11:33:41;;;;;;;28.40;16.77;;;;;;;5.65;90.74;98899.38;5053038;28;20507;-77
2020/12/07 11:36:13;;;;;;;28.63;17.02;;;;;;;5.70;90.37;98907.84;5050796;28;20463;-75
2020/12/07 11:38:59;;;;;;;34.72;18.02;;;;;;;5.70;90.33;98918.34;5049140;28;20037;-77
2020/12/07 11:41:43;;;;;;;37.40;18.05;;;;;;;5.63;91.01;98903.84;5036236;28;20572;-76
2020/12/07 11:44:13;;;;;;;29.30;17.38;;;;;;;5.62;90.29;98910.03;5046098;28;20473;-78
2020/12/07 11:46:43;;;;;;;30.75;17.75;;;;;;;5.60;90.61;98894.34;5044016;28;20147;-76
2020/12/07 11:49:10;;;;;;;25.65;16.45;;;;;;;5.74;90.54;98904.13;5048465;28;20136;-76
2020/12/07 11:51:38;;;;;;;26.95;16.42;;;;;;;5.81;89.30;98900.28;5041924;28;20497;-76
2020/12/07 11:54:06;;;;;;;29.17;17.58;;;;;;;5.80;88.72;98903.84;5043763;28;20053;-76
2020/12/07 11:56:37;;;;;;;27.08;17.75;;;;;;;5.78;88.77;98904.84;5050801;28;20129;-76
2020/12/07 11:59:05;;;;;;;30.67;17.63;;;;;;;5.76;88.95;98912.78;5048288;28;20568;-77
2020/12/07 12:01:35;;;;;;;28.05;16.33;;;;;;;5.76;88.48;98914.56;5061947;28;20080;-78
2020/12/07 12:04:03;;;;;;;27.63;16.80;;;;;;;5.72;88.13;98918.28;5064481;28;20064;-76
2020/12/07 12:06:35;;;;;;;28.15;16.70;;;;;;;5.70;88.20;98914.88;5055917;28;20567;-76
2020/12/07 12:09:07;;;;;;;28.67;16.35;;;;;;;5.63;88.32;98901.22;5053799;28;20091;-76
2020/12/07 12:11:35;;;;;;;24.63;16.33;;;;;;;5.75;87.72;98916.34;5044827;28;20055;-76